createdAt,value
2022-09-02T00:03:10.754Z,0.85
2022-09-02T00:08:13.788Z,0.90
2022-09-02T00:13:19.845Z,0.80
2022-09-02T00:18:21.780Z,0.88
2022-09-02T00:23:23.708Z,0.85
2022-09-02T00:28:29.823Z,0.82
2022-09-02T00:33:32.562Z,1.15
2022-09-02T00:38:38.299Z,0.90
2022-09-02T00:43:54.235Z,0.90
2022-09-02T00:49:01.593Z,1.02
2022-09-02T00:54:06.606Z,1.20
2022-09-02T00:59:09.006Z,0.80
2022-09-02T01:04:10.907Z,0.95
2022-09-02T01:09:16.464Z,1.30
2022-09-02T01:14:18.331Z,0.82
2022-09-02T01:19:28.172Z,0.90
2022-09-02T01:24:35.090Z,0.70
2022-09-02T01:29:37.065Z,0.63
2022-09-02T01:34:38.993Z,0.80
2022-09-02T01:39:41.405Z,0.98
2022-09-02T01:44:46.575Z,0.73
2022-09-02T01:49:51.052Z,1.00
2022-09-02T01:54:53.524Z,0.73
2022-09-02T01:59:55.586Z,1.10
2022-09-02T02:04:57.801Z,0.82
2022-09-02T02:10:02.129Z,0.75
2022-09-02T02:15:12.036Z,1.10
2022-09-02T02:20:17.355Z,0.80
2022-09-02T02:25:19.434Z,0.90
2022-09-02T02:30:24.916Z,1.20
2022-09-02T02:35:27.653Z,1.25
2022-09-02T02:40:29.790Z,0.80
2022-09-02T02:45:32.223Z,0.70
2022-09-02T02:50:34.407Z,0.85
2022-09-02T02:55:36.765Z,0.73
2022-09-02T03:00:38.815Z,0.90
2022-09-02T03:05:41.630Z,0.98
2022-09-02T03:10:44.467Z,1.10
2022-09-02T03:15:46.540Z,1.02
2022-09-02T03:20:48.866Z,1.33
2022-09-02T03:25:50.939Z,1.10
2022-09-02T03:31:03.401Z,0.95
2022-09-02T03:36:06.393Z,1.00
2022-09-02T03:41:10.196Z,1.10
2022-09-02T03:46:13.752Z,0.70
2022-09-02T03:51:16.423Z,0.80
2022-09-02T03:56:19.281Z,1.08
2022-09-02T04:01:24.904Z,0.80
2022-09-02T04:06:32.489Z,0.90
2022-09-02T04:11:42.874Z,0.82
2022-09-02T04:17:42.626Z,0.70
2022-09-02T04:23:06.304Z,0.88
2022-09-02T04:28:08.969Z,0.95
2022-09-02T04:33:12.006Z,1.00
2022-09-02T04:38:15.364Z,0.90
2022-09-02T04:43:18.344Z,0.77
2022-09-02T04:48:23.941Z,0.90
2022-09-02T04:53:26.445Z,0.88
2022-09-02T04:58:28.603Z,0.90
2022-09-02T05:03:31.535Z,1.27
2022-09-02T05:08:37.022Z,0.88
2022-09-02T05:13:41.907Z,1.10
2022-09-02T05:18:43.937Z,0.80
2022-09-02T05:23:48.002Z,1.15
2022-09-02T05:28:50.692Z,1.00
2022-09-02T05:33:53.506Z,0.90
2022-09-02T05:38:57.635Z,0.80
2022-09-02T05:44:03.726Z,0.80
2022-09-02T05:49:07.853Z,0.85
2022-09-02T05:54:24.214Z,1.08
2022-09-02T05:59:30.115Z,0.87
2022-09-02T06:04:41.579Z,1.02
2022-09-02T06:09:45.287Z,0.68
2022-09-02T06:14:49.431Z,0.60
2022-09-02T06:19:53.028Z,1.10
2022-09-02T06:24:59.248Z,0.63
2022-09-02T06:30:02.650Z,0.50
2022-09-02T06:35:05.331Z,0.68
2022-09-02T06:40:11.350Z,1.48
2022-09-02T06:45:13.534Z,1.20
2022-09-02T06:50:16.431Z,0.70
2022-09-02T06:55:18.689Z,0.70
2022-09-02T07:00:21.133Z,0.70
2022-09-02T07:05:23.594Z,1.13
2022-09-02T07:10:25.670Z,0.50
2022-09-02T07:15:30.405Z,0.50
2022-09-02T07:20:32.671Z,0.90
2022-09-02T07:25:41.699Z,1.10
2022-09-02T07:30:45.939Z,0.70
2022-09-02T07:35:53.281Z,0.63
2022-09-02T07:40:57.384Z,0.70
2022-09-02T07:46:06.883Z,0.60
2022-09-02T07:51:09.400Z,0.77
2022-09-02T07:56:15.304Z,0.68
2022-09-02T08:01:23.452Z,0.80
2022-09-02T08:06:33.665Z,0.57
2022-09-02T08:11:41.232Z,0.70
2022-09-02T08:16:44.625Z,0.60
2022-09-02T08:21:46.740Z,1.45
2022-09-02T08:26:49.142Z,0.65
2022-09-02T08:31:53.955Z,0.70
2022-09-02T08:36:57.744Z,0.73
2022-09-02T08:42:15.980Z,0.50
2022-09-02T08:47:23.088Z,0.70
2022-09-02T08:52:42.764Z,0.50
2022-09-02T08:57:45.999Z,0.63
2022-09-02T09:03:03.362Z,0.30
2022-09-02T09:08:35.163Z,0.50
2022-09-02T09:14:17.879Z,0.40
2022-09-02T09:19:34.854Z,0.40
2022-09-02T09:24:39.526Z,0.40
2022-09-02T09:29:42.042Z,0.30
2022-09-02T09:34:53.445Z,0.40
2022-09-02T09:39:55.412Z,0.32
2022-09-02T09:44:57.827Z,0.40
2022-09-02T09:50:12.837Z,0.40
2022-09-02T09:55:24.695Z,0.50
2022-09-02T10:00:34.615Z,0.35
2022-09-02T10:05:40.303Z,0.30
2022-09-02T10:11:02.216Z,0.20
2022-09-02T10:16:15.510Z,0.30
2022-09-02T10:21:45.033Z,0.28
2022-09-02T10:26:51.603Z,0.35
2022-09-02T10:32:34.760Z,0.30
2022-09-02T10:38:01.201Z,0.30
2022-09-02T10:43:09.801Z,0.20
2022-09-02T10:48:25.802Z,0.22
2022-09-02T10:53:43.873Z,0.40
2022-09-02T10:59:03.485Z,0.47
2022-09-02T11:04:22.626Z,0.30
2022-09-02T11:09:43.513Z,0.35
2022-09-02T11:15:13.120Z,0.35
2022-09-02T11:20:22.419Z,0.20
2022-09-02T11:26:09.086Z,0.20
2022-09-02T11:31:19.712Z,0.32
2022-09-02T11:36:22.139Z,0.30
2022-09-02T11:41:40.619Z,0.40
2022-09-02T11:46:49.100Z,0.20
2022-09-02T11:52:09.138Z,0.20
2022-09-02T11:57:15.364Z,0.22
2022-09-02T12:02:38.494Z,0.30
2022-09-02T12:07:48.962Z,0.30
2022-09-02T12:12:53.746Z,0.20
2022-09-02T12:17:55.646Z,0.28
2022-09-02T12:22:58.589Z,0.20
2022-09-02T12:28:27.683Z,0.30
2022-09-02T12:33:33.727Z,0.52
2022-09-02T12:38:43.009Z,0.28
2022-09-02T12:44:16.524Z,0.30
2022-09-02T12:49:48.939Z,0.25
2022-09-02T12:54:51.708Z,0.20
2022-09-02T12:59:59.527Z,0.28
2022-09-02T13:05:04.642Z,0.20
2022-09-02T13:10:23.703Z,0.43
2022-09-02T13:15:51.951Z,0.25
2022-09-02T13:21:23.303Z,0.43
2022-09-02T13:26:52.744Z,0.35
2022-09-02T13:32:12.437Z,0.43
2022-09-02T13:37:36.642Z,0.20
2022-09-02T13:42:38.792Z,0.30
2022-09-02T13:47:53.491Z,0.30
2022-09-02T13:58:32.324Z,0.43
2022-09-02T14:03:34.492Z,0.22
2022-09-02T14:08:36.475Z,0.28
2022-09-02T14:13:44.071Z,0.55
2022-09-02T14:24:13.253Z,0.45
2022-09-02T14:29:18.026Z,0.25
2022-09-02T14:34:36.978Z,0.40
2022-09-02T14:39:52.769Z,0.45
2022-09-02T14:44:54.967Z,0.30
2022-09-02T14:49:57.199Z,0.40
2022-09-02T14:54:59.271Z,0.22
2022-09-02T15:00:01.320Z,0.40
2022-09-02T15:05:08.521Z,0.43
2022-09-02T15:10:10.456Z,0.50
2022-09-02T15:15:12.456Z,0.35
2022-09-02T15:20:15.408Z,0.50
2022-09-02T15:25:17.268Z,0.20
2022-09-02T15:30:19.086Z,0.50
2022-09-02T15:35:21.059Z,0.65
2022-09-02T15:40:23.665Z,0.30
2022-09-02T15:45:26.743Z,0.60
2022-09-02T15:50:32.593Z,0.43
2022-09-02T15:55:36.366Z,0.50
2022-09-02T16:00:38.336Z,0.22
2022-09-02T16:05:43.267Z,0.57
2022-09-02T16:10:45.392Z,0.30
2022-09-02T16:15:48.443Z,0.55
2022-09-02T16:20:50.482Z,0.43
2022-09-02T16:26:24.701Z,0.45
2022-09-02T16:31:30.316Z,0.40
2022-09-02T16:36:35.413Z,0.43
2022-09-02T16:41:42.322Z,0.38
2022-09-02T16:46:46.028Z,0.50
2022-09-02T16:51:49.897Z,0.68
2022-09-02T16:56:52.028Z,0.45
2022-09-02T17:01:53.865Z,0.40
2022-09-02T17:06:55.771Z,0.60
2022-09-02T17:11:57.703Z,0.50
2022-09-02T17:16:59.578Z,0.35
2022-09-02T17:22:01.792Z,0.57
2022-09-02T17:27:04.667Z,0.40
2022-09-02T17:32:07.176Z,0.40
2022-09-02T17:37:09.138Z,0.30
2022-09-02T17:42:12.078Z,0.35
2022-09-02T17:47:20.292Z,0.60
2022-09-02T17:52:24.248Z,0.32
2022-09-02T17:57:50.838Z,0.40
2022-09-02T18:03:31.272Z,0.70
2022-09-02T18:08:51.464Z,0.68
2022-09-02T18:14:15.804Z,0.77
2022-09-02T18:19:38.983Z,0.40
2022-09-02T18:24:43.731Z,0.55
2022-09-02T18:30:07.664Z,0.80
2022-09-02T18:35:45.118Z,0.70
2022-09-02T18:41:00.123Z,0.80
2022-09-02T18:46:03.332Z,0.60
2022-09-02T18:51:10.152Z,0.90
2022-09-02T18:56:13.612Z,1.52
2022-09-02T19:01:27.773Z,4.22
2022-09-02T19:06:36.185Z,1.08
2022-09-02T19:11:39.998Z,0.70
2022-09-02T19:16:42.091Z,0.50
2022-09-02T19:21:51.377Z,0.50
2022-09-02T19:26:59.771Z,0.70
2022-09-02T19:32:02.947Z,1.05
2022-09-02T19:37:05.475Z,0.70
2022-09-02T19:42:09.267Z,0.73
2022-09-02T19:47:50.190Z,4.25
2022-09-02T19:52:41.192Z,11.68
2022-09-02T19:57:44.086Z,8.13
2022-09-02T20:02:46.256Z,1.42
2022-09-02T20:07:48.139Z,1.10
2022-09-02T20:12:50.013Z,0.80
2022-09-02T20:18:09.332Z,7.22
2022-09-02T20:23:16.974Z,14.52
2022-09-02T20:28:47.202Z,10.95
2022-09-02T20:34:29.965Z,9.63
2022-09-02T20:39:52.526Z,2.30
2022-09-02T20:44:57.435Z,1.20
2022-09-02T20:50:11.773Z,0.95
2022-09-02T20:55:23.061Z,1.17
2022-09-02T21:00:25.138Z,1.00
2022-09-02T21:05:33.229Z,0.90
2022-09-02T21:10:46.328Z,0.90
2022-09-02T21:15:56.092Z,0.90
2022-09-02T21:21:10.085Z,1.10
2022-09-02T21:26:34.792Z,0.95
2022-09-02T21:31:42.579Z,0.80
2022-09-02T21:42:00.663Z,0.75
2022-09-02T21:47:28.847Z,0.70
2022-09-02T21:52:53.015Z,1.15
2022-09-02T21:58:41.442Z,0.85
2022-09-02T22:03:50.763Z,0.82
2022-09-02T22:09:12.229Z,1.50
2022-09-02T22:14:22.917Z,0.98
2022-09-02T22:19:30.133Z,1.52
2022-09-02T22:24:34.526Z,2.08
2022-09-02T22:29:48.235Z,1.13
2022-09-02T22:35:02.452Z,0.93
2022-09-02T22:40:10.344Z,0.85
2022-09-02T22:45:47.471Z,0.88
2022-09-02T22:51:18.838Z,0.90
2022-09-02T22:56:45.894Z,0.88
2022-09-02T23:02:06.481Z,1.05
2022-09-02T23:07:08.289Z,0.80
2022-09-02T23:12:44.576Z,0.90
2022-09-02T23:18:07.385Z,0.75
2022-09-02T23:23:19.152Z,0.90
2022-09-02T23:28:47.918Z,0.63
2022-09-02T23:34:30.829Z,0.68
2022-09-02T23:40:05.122Z,1.10
2022-09-02T23:45:21.969Z,0.93
2022-09-02T23:50:45.839Z,0.60
2022-09-02T23:56:11.903Z,0.75
